createdAt,value
2022-10-11T00:01:37.049Z,14.55
2022-10-11T00:04:04.870Z,14.49
2022-10-11T00:06:32.542Z,14.38
2022-10-11T00:09:01.261Z,14.50
2022-10-11T00:11:28.929Z,14.59
2022-10-11T00:13:58.852Z,14.30
2022-10-11T00:16:26.525Z,14.42
2022-10-11T00:18:54.187Z,14.40
2022-10-11T00:21:21.982Z,14.44
2022-10-11T00:23:50.404Z,14.39
2022-10-11T00:26:19.000Z,14.72
2022-10-11T00:28:46.732Z,14.70
2022-10-11T00:31:16.825Z,14.72
2022-10-11T00:33:44.539Z,14.82
2022-10-11T00:36:14.423Z,14.89
2022-10-11T00:38:42.573Z,15.41
2022-10-11T00:41:10.386Z,15.50
2022-10-11T00:43:38.179Z,15.29
2022-10-11T00:46:26.033Z,15.44
2022-10-11T00:48:59.110Z,15.24
2022-10-11T00:51:37.118Z,15.06
2022-10-11T00:54:05.858Z,14.89
2022-10-11T00:56:37.755Z,15.06
2022-10-11T00:59:10.813Z,14.61
2022-10-11T01:01:40.052Z,14.83
2022-10-11T01:04:07.859Z,14.90
2022-10-11T01:06:36.252Z,14.75
2022-10-11T01:09:04.936Z,14.82
2022-10-11T01:11:33.084Z,15.01
2022-10-11T01:14:17.216Z,14.93
2022-10-11T01:16:53.895Z,14.82
2022-10-11T01:19:44.874Z,14.85
2022-10-11T01:22:30.867Z,15.17
2022-10-11T01:25:25.624Z,15.69
2022-10-11T01:28:36.934Z,15.92
2022-10-11T01:31:12.663Z,16.01
2022-10-11T01:33:45.384Z,16.39
2022-10-11T01:36:27.537Z,16.55
2022-10-11T01:39:00.398Z,16.35
2022-10-11T01:41:30.898Z,15.36
2022-10-11T01:44:01.285Z,14.86
2022-10-11T01:46:32.240Z,14.55
2022-10-11T01:49:02.342Z,15.08
2022-10-11T01:51:32.667Z,14.17
2022-10-11T01:54:09.100Z,13.78
2022-10-11T01:56:53.089Z,14.14
2022-10-11T01:59:36.272Z,13.96
2022-10-11T02:02:19.602Z,13.88
2022-10-11T02:04:51.310Z,14.05
2022-10-11T02:07:24.290Z,13.75
2022-10-11T02:10:00.045Z,13.74
2022-10-11T02:12:33.229Z,13.71
2022-10-11T02:15:03.988Z,13.85
2022-10-11T02:17:38.308Z,13.80
2022-10-11T02:20:09.537Z,13.76
2022-10-11T02:22:41.816Z,13.63
2022-10-11T02:25:14.380Z,13.58
2022-10-11T02:27:46.305Z,13.63
2022-10-11T02:30:16.033Z,13.67
2022-10-11T02:32:47.480Z,13.94
2022-10-11T02:35:15.477Z,13.82
2022-10-11T02:37:47.211Z,13.64
2022-10-11T02:40:21.974Z,13.59
2022-10-11T02:42:58.532Z,13.58
2022-10-11T02:45:31.292Z,13.61
2022-10-11T02:48:01.985Z,14.14
2022-10-11T02:50:29.857Z,14.09
2022-10-11T02:52:57.385Z,14.54
2022-10-11T02:55:25.111Z,14.29
2022-10-11T02:57:52.697Z,14.50
2022-10-11T03:00:20.592Z,14.56
2022-10-11T03:02:48.259Z,14.97
2022-10-11T03:05:17.486Z,14.74
2022-10-11T03:07:45.196Z,15.20
2022-10-11T03:10:13.955Z,14.88
2022-10-11T03:12:41.748Z,15.00
2022-10-11T03:15:10.427Z,14.34
2022-10-11T03:17:38.091Z,14.07
2022-10-11T03:20:07.126Z,14.00
2022-10-11T03:22:36.297Z,13.76
2022-10-11T03:25:04.986Z,13.49
2022-10-11T03:27:33.115Z,13.74
2022-10-11T03:30:00.819Z,14.43
2022-10-11T03:32:28.856Z,14.76
2022-10-11T03:34:56.680Z,14.93
2022-10-11T03:37:25.153Z,14.88
2022-10-11T03:39:54.286Z,13.94
2022-10-11T03:42:22.062Z,13.23
2022-10-11T03:44:51.856Z,13.01
2022-10-11T03:47:20.000Z,12.96
2022-10-11T03:49:47.961Z,13.09
2022-10-11T03:52:15.654Z,13.00
2022-10-11T03:54:43.403Z,12.79
2022-10-11T03:57:12.446Z,12.74
2022-10-11T03:59:40.108Z,12.76
2022-10-11T04:02:07.863Z,12.78
2022-10-11T04:04:36.032Z,12.93
2022-10-11T04:07:04.042Z,12.85
2022-10-11T04:09:32.159Z,13.22
2022-10-11T04:11:59.894Z,13.43
2022-10-11T04:14:29.222Z,13.29
2022-10-11T04:17:00.235Z,13.82
2022-10-11T04:19:28.639Z,14.59
2022-10-11T04:21:56.308Z,14.12
2022-10-11T04:24:24.021Z,13.64
2022-10-11T04:26:51.682Z,13.41
2022-10-11T04:29:19.363Z,13.32
2022-10-11T04:31:48.440Z,13.58
2022-10-11T04:34:16.532Z,13.96
2022-10-11T04:36:49.633Z,14.78
2022-10-11T04:39:17.661Z,15.48
2022-10-11T04:41:45.344Z,15.92
2022-10-11T04:44:13.201Z,15.45
2022-10-11T04:46:40.908Z,15.50
2022-10-11T04:49:10.003Z,15.49
2022-10-11T04:51:37.843Z,15.85
2022-10-11T04:54:05.624Z,16.03
2022-10-11T04:56:33.385Z,16.12
2022-10-11T04:59:01.041Z,16.04
2022-10-11T05:01:28.811Z,16.39
2022-10-11T05:03:56.480Z,16.54
2022-10-11T05:06:25.571Z,16.76
2022-10-11T05:08:53.442Z,16.58
2022-10-11T05:11:21.215Z,15.65
2022-10-11T05:13:49.084Z,16.00
2022-10-11T05:16:17.644Z,16.32
2022-10-11T05:18:45.884Z,16.25
2022-10-11T05:21:18.821Z,15.78
2022-10-11T05:23:49.399Z,15.51
2022-10-11T05:26:17.761Z,14.58
2022-10-11T05:28:54.329Z,15.08
2022-10-11T05:31:24.799Z,15.08
2022-10-11T05:33:52.558Z,15.19
2022-10-11T05:36:20.456Z,15.38
2022-10-11T05:38:49.577Z,14.99
2022-10-11T05:41:17.874Z,14.92
2022-10-11T05:43:45.889Z,15.09
2022-10-11T05:46:14.227Z,15.78
2022-10-11T05:48:42.022Z,15.56
2022-10-11T05:51:10.857Z,15.52
2022-10-11T05:53:40.105Z,15.70
2022-10-11T05:56:20.236Z,15.92
2022-10-11T05:58:48.407Z,16.09
2022-10-11T06:01:24.615Z,15.87
2022-10-11T06:03:52.952Z,15.49
2022-10-11T06:06:21.479Z,16.01
2022-10-11T06:08:49.643Z,15.65
2022-10-11T06:11:21.321Z,15.44
2022-10-11T06:13:49.624Z,15.82
2022-10-11T06:16:17.490Z,16.08
2022-10-11T06:18:45.371Z,16.21
2022-10-11T06:21:13.272Z,15.79
2022-10-11T06:23:40.998Z,15.71
2022-10-11T06:26:10.105Z,15.27
2022-10-11T06:28:39.401Z,15.01
2022-10-11T06:31:07.851Z,15.13
2022-10-11T06:33:36.513Z,15.59
2022-10-11T06:36:06.893Z,15.58
2022-10-11T06:38:35.195Z,15.18
2022-10-11T06:41:10.515Z,14.85
2022-10-11T06:43:39.613Z,14.97
2022-10-11T06:46:08.013Z,14.95
2022-10-11T06:48:36.055Z,14.82
2022-10-11T06:51:03.843Z,14.48
2022-10-11T06:53:31.570Z,14.89
2022-10-11T06:56:03.868Z,14.87
2022-10-11T06:58:31.961Z,14.83
2022-10-11T07:01:05.434Z,14.81
2022-10-11T07:03:33.548Z,14.39
2022-10-11T07:06:02.914Z,14.45
2022-10-11T07:08:30.994Z,14.87
2022-10-11T07:11:01.692Z,15.04
2022-10-11T07:13:29.437Z,15.17
2022-10-11T07:15:57.553Z,15.02
2022-10-11T07:18:26.677Z,15.14
2022-10-11T07:20:54.472Z,14.95
2022-10-11T07:23:22.193Z,15.02
2022-10-11T07:25:49.893Z,15.11
2022-10-11T07:28:17.633Z,14.89
2022-10-11T07:30:45.521Z,14.91
2022-10-11T07:33:13.346Z,15.20
2022-10-11T07:35:47.359Z,15.24
2022-10-11T07:38:16.357Z,14.92
2022-10-11T07:40:45.874Z,14.88
2022-10-11T07:43:23.374Z,14.92
2022-10-11T07:45:55.664Z,15.15
2022-10-11T07:48:24.096Z,15.28
2022-10-11T07:50:53.182Z,15.74
2022-10-11T07:53:21.092Z,15.25
2022-10-11T07:55:48.921Z,15.27
2022-10-11T07:58:16.632Z,15.26
2022-10-11T08:00:44.369Z,15.14
2022-10-11T08:03:12.113Z,15.06
2022-10-11T08:05:39.871Z,15.11
2022-10-11T08:08:08.943Z,15.21
2022-10-11T08:10:39.102Z,14.97
2022-10-11T08:13:06.929Z,15.08
2022-10-11T08:15:34.622Z,15.65
2022-10-11T08:18:05.271Z,15.72
2022-10-11T08:20:33.114Z,15.62
2022-10-11T08:23:00.833Z,15.54
2022-10-11T08:25:29.947Z,15.56
2022-10-11T08:27:57.689Z,15.44
2022-10-11T08:30:25.444Z,15.46
2022-10-11T08:32:53.135Z,15.72
2022-10-11T08:35:20.849Z,15.38
2022-10-11T08:37:48.558Z,15.39
2022-10-11T08:40:17.658Z,15.61
2022-10-11T08:42:54.401Z,15.75
2022-10-11T08:45:32.218Z,15.76
2022-10-11T08:48:09.438Z,15.54
2022-10-11T08:50:39.062Z,15.98
2022-10-11T08:53:15.421Z,15.48
2022-10-11T08:55:49.080Z,16.10
2022-10-11T08:58:22.660Z,15.90
2022-10-11T09:00:54.963Z,16.03
2022-10-11T09:03:31.751Z,15.74
2022-10-11T09:06:08.613Z,15.55
2022-10-11T09:08:50.621Z,16.03
2022-10-11T09:11:29.614Z,16.03
2022-10-11T09:14:14.206Z,15.85
2022-10-11T09:16:57.027Z,16.27
2022-10-11T09:19:45.401Z,15.70
2022-10-11T09:22:24.790Z,16.22
2022-10-11T09:25:06.240Z,16.58
2022-10-11T09:28:01.409Z,16.12
2022-10-11T09:30:28.187Z,15.75
2022-10-11T09:33:04.852Z,16.46
2022-10-11T09:35:38.842Z,16.41
2022-10-11T09:38:12.653Z,16.32
2022-10-11T09:40:52.325Z,16.75
2022-10-11T09:43:20.090Z,16.34
2022-10-11T09:45:49.746Z,16.66
2022-10-11T09:48:21.326Z,16.50
2022-10-11T09:50:50.176Z,16.75
2022-10-11T09:53:19.296Z,17.18
2022-10-11T09:55:53.003Z,16.73
2022-10-11T09:58:29.940Z,16.78
2022-10-11T10:01:07.404Z,16.98
2022-10-11T10:03:37.093Z,17.05
2022-10-11T10:06:10.687Z,17.49
2022-10-11T10:08:38.859Z,16.97
2022-10-11T10:11:08.585Z,16.92
2022-10-11T10:13:45.582Z,17.23
2022-10-11T10:16:26.817Z,17.52
2022-10-11T10:18:56.762Z,17.89
2022-10-11T10:21:48.659Z,18.05
2022-10-11T10:24:21.876Z,18.20
2022-10-11T10:27:08.852Z,17.87
2022-10-11T10:29:36.771Z,18.29
2022-10-11T10:32:14.712Z,17.99
2022-10-11T10:34:59.229Z,18.57
2022-10-11T10:37:33.332Z,18.76
2022-10-11T10:40:02.899Z,19.49
2022-10-11T10:42:30.634Z,19.51
2022-10-11T10:44:59.465Z,18.73
2022-10-11T10:47:58.783Z,18.56
2022-10-11T10:50:31.910Z,19.27
2022-10-11T10:53:14.004Z,18.68
2022-10-11T10:55:44.372Z,17.44
2022-10-11T10:58:26.110Z,17.51
2022-10-11T11:00:59.806Z,18.01
2022-10-11T11:03:35.234Z,18.56
2022-10-11T11:06:06.137Z,18.19
2022-10-11T11:08:48.047Z,18.88
2022-10-11T11:11:32.367Z,19.81
2022-10-11T11:14:10.069Z,19.08
2022-10-11T11:16:44.697Z,20.09
2022-10-11T11:19:30.428Z,20.08
2022-10-11T11:22:03.051Z,18.87
2022-10-11T11:24:43.319Z,18.54
2022-10-11T11:27:20.229Z,19.36
2022-10-11T11:29:57.299Z,18.34
2022-10-11T11:32:35.780Z,18.59
2022-10-11T11:35:10.794Z,19.21
2022-10-11T11:37:41.469Z,19.11
2022-10-11T11:40:17.841Z,19.01
2022-10-11T11:42:49.557Z,18.74
2022-10-11T11:45:22.665Z,19.62
2022-10-11T11:48:00.725Z,19.41
2022-10-11T11:50:34.552Z,19.41
2022-10-11T11:53:09.078Z,19.06
2022-10-11T11:55:45.399Z,18.77
2022-10-11T11:58:28.649Z,19.02
2022-10-11T12:01:03.776Z,18.91
2022-10-11T12:03:40.624Z,19.19
2022-10-11T12:06:36.114Z,18.03
2022-10-11T12:09:20.448Z,18.03
2022-10-11T12:11:55.610Z,17.77
2022-10-11T12:14:36.885Z,17.98
2022-10-11T12:17:18.290Z,18.43
2022-10-11T12:20:04.621Z,18.89
2022-10-11T12:22:53.694Z,17.85
2022-10-11T12:25:50.327Z,17.91
2022-10-11T12:29:00.987Z,18.18
2022-10-11T12:31:31.516Z,17.77
2022-10-11T12:34:22.082Z,18.34
2022-10-11T12:36:51.613Z,17.71
2022-10-11T12:39:47.593Z,17.10
2022-10-11T12:42:28.097Z,16.70
2022-10-11T12:45:32.870Z,17.36
2022-10-11T12:48:37.134Z,17.24
2022-10-11T12:51:26.586Z,17.78
2022-10-11T12:54:27.467Z,17.66
2022-10-11T12:57:24.007Z,18.09
2022-10-11T12:59:51.845Z,18.20
2022-10-11T13:02:28.972Z,17.92
2022-10-11T13:05:08.098Z,18.32
2022-10-11T13:07:36.603Z,18.69
2022-10-11T13:10:09.318Z,17.90
2022-10-11T13:12:43.958Z,18.01
2022-10-11T13:15:15.466Z,17.99
2022-10-11T13:17:43.492Z,18.40
2022-10-11T13:20:18.682Z,18.09
2022-10-11T13:22:49.649Z,18.48
2022-10-11T13:25:20.989Z,18.37
2022-10-11T13:27:52.306Z,18.51
2022-10-11T13:30:27.952Z,17.83
2022-10-11T13:32:56.449Z,17.99
2022-10-11T13:35:31.229Z,18.16
2022-10-11T13:37:59.334Z,17.98
2022-10-11T13:40:28.065Z,18.45
2022-10-11T13:42:57.847Z,18.26
2022-10-11T13:45:30.475Z,17.92
2022-10-11T13:47:59.049Z,17.84
2022-10-11T13:50:32.205Z,17.86
2022-10-11T13:53:01.795Z,18.61
2022-10-11T13:55:33.499Z,17.94
2022-10-11T13:58:04.645Z,18.05
2022-10-11T14:00:35.001Z,18.24
2022-10-11T14:03:08.086Z,18.47
2022-10-11T14:05:38.841Z,18.89
2022-10-11T14:08:08.857Z,18.82
2022-10-11T14:10:36.749Z,18.46
2022-10-11T14:13:21.670Z,18.34
2022-10-11T14:16:00.434Z,18.76
2022-10-11T14:18:48.301Z,18.68
2022-10-11T14:21:35.666Z,18.21
2022-10-11T14:24:06.453Z,18.98
2022-10-11T14:26:37.232Z,18.44
2022-10-11T14:29:09.559Z,18.32
2022-10-11T14:31:41.741Z,18.46
2022-10-11T14:34:18.767Z,18.87
2022-10-11T14:36:46.620Z,18.28
2022-10-11T14:39:21.241Z,18.42
2022-10-11T14:41:49.772Z,19.03
2022-10-11T14:44:20.579Z,19.71
2022-10-11T14:46:50.752Z,19.65
2022-10-11T14:49:20.138Z,19.83
2022-10-11T14:51:50.003Z,20.06
2022-10-11T14:54:22.342Z,19.52
2022-10-11T14:56:50.810Z,19.07
2022-10-11T14:59:22.156Z,19.45
2022-10-11T15:01:51.872Z,19.28
2022-10-11T15:04:19.752Z,19.12
2022-10-11T15:06:51.775Z,18.98
2022-10-11T15:09:21.202Z,18.46
2022-10-11T15:11:49.899Z,18.45
2022-10-11T15:14:20.677Z,19.11
2022-10-11T15:16:50.060Z,19.15
2022-10-11T15:19:19.304Z,19.52
2022-10-11T15:21:48.113Z,18.38
2022-10-11T15:24:16.291Z,18.38
2022-10-11T15:26:45.110Z,18.46
2022-10-11T15:29:13.555Z,17.97
2022-10-11T15:31:41.272Z,17.33
2022-10-11T15:34:11.123Z,17.69
2022-10-11T15:36:41.759Z,17.62
2022-10-11T15:39:24.240Z,17.92
2022-10-11T15:41:52.035Z,17.81
2022-10-11T15:44:19.849Z,17.35
2022-10-11T15:46:47.589Z,17.40
2022-10-11T15:49:17.433Z,17.97
2022-10-11T15:51:45.218Z,18.00
2022-10-11T15:54:12.930Z,18.11
2022-10-11T15:56:40.624Z,17.90
2022-10-11T15:59:08.341Z,17.63
2022-10-11T16:01:36.382Z,17.66
2022-10-11T16:04:04.283Z,17.81
2022-10-11T16:06:33.547Z,17.63
2022-10-11T16:09:01.269Z,17.23
2022-10-11T16:11:29.155Z,17.35
2022-10-11T16:13:57.279Z,17.02
2022-10-11T16:16:25.113Z,17.37
2022-10-11T16:18:53.000Z,17.49
2022-10-11T16:21:21.514Z,17.50
2022-10-11T16:23:50.595Z,17.10
2022-10-11T16:26:18.311Z,17.25
2022-10-11T16:28:47.561Z,17.62
2022-10-11T16:31:18.189Z,16.80
2022-10-11T16:33:48.761Z,16.47
2022-10-11T16:36:36.100Z,16.73
2022-10-11T16:39:08.677Z,16.49
2022-10-11T16:41:36.443Z,16.22
2022-10-11T16:44:04.462Z,16.61
2022-10-11T16:46:32.695Z,16.96
2022-10-11T16:49:01.445Z,16.20
2022-10-11T16:51:29.199Z,16.53
2022-10-11T16:53:56.916Z,17.05
2022-10-11T16:56:26.109Z,17.09
2022-10-11T16:58:54.720Z,16.99
2022-10-11T17:01:23.108Z,17.01
2022-10-11T17:03:51.286Z,17.37
2022-10-11T17:06:19.380Z,17.51
2022-10-11T17:08:47.264Z,17.02
2022-10-11T17:11:16.669Z,17.22
2022-10-11T17:13:46.134Z,17.53
2022-10-11T17:16:13.908Z,17.67
2022-10-11T17:18:41.712Z,17.67
2022-10-11T17:21:12.767Z,17.69
2022-10-11T17:23:40.907Z,17.62
2022-10-11T17:26:13.614Z,17.66
2022-10-11T17:28:41.668Z,17.77
2022-10-11T17:31:10.812Z,17.67
2022-10-11T17:33:39.189Z,17.73
2022-10-11T17:36:16.392Z,17.57
2022-10-11T17:38:45.083Z,17.81
2022-10-11T17:41:12.982Z,17.84
2022-10-11T17:43:41.004Z,17.95
2022-10-11T17:46:12.820Z,17.91
2022-10-11T17:48:40.869Z,16.54
2022-10-11T17:51:09.834Z,16.91
2022-10-11T17:53:38.335Z,17.38
2022-10-11T17:56:07.701Z,17.28
2022-10-11T17:58:35.679Z,17.39
2022-10-11T18:01:05.057Z,17.37
2022-10-11T18:03:34.695Z,17.48
2022-10-11T18:06:03.673Z,17.47
2022-10-11T18:08:34.286Z,17.44
2022-10-11T18:11:04.619Z,17.31
2022-10-11T18:13:32.619Z,17.09
2022-10-11T18:16:00.314Z,17.28
2022-10-11T18:18:27.975Z,17.36
2022-10-11T18:20:57.047Z,17.35
2022-10-11T18:23:24.724Z,17.45
2022-10-11T18:25:52.422Z,17.55
2022-10-11T18:28:20.517Z,17.56
2022-10-11T18:30:48.500Z,17.35
2022-10-11T18:33:17.162Z,17.34
2022-10-11T18:35:44.919Z,17.22
2022-10-11T18:38:14.045Z,17.02
2022-10-11T18:40:46.873Z,16.93
2022-10-11T18:43:14.944Z,17.04
2022-10-11T18:45:42.658Z,17.04
2022-10-11T18:48:12.790Z,17.03
2022-10-11T18:50:40.519Z,17.17
2022-10-11T18:53:08.234Z,17.11
2022-10-11T18:55:37.373Z,17.01
2022-10-11T18:58:05.108Z,16.92
2022-10-11T19:00:41.381Z,16.97
2022-10-11T19:03:09.419Z,16.73
2022-10-11T19:05:39.463Z,16.73
2022-10-11T19:08:07.268Z,16.92
2022-10-11T19:10:35.210Z,16.98
2022-10-11T19:13:04.308Z,16.73
2022-10-11T19:15:32.264Z,16.78
2022-10-11T19:17:59.939Z,16.68
2022-10-11T19:20:27.638Z,16.57
2022-10-11T19:22:55.435Z,16.17
2022-10-11T19:25:23.728Z,16.21
2022-10-11T19:27:51.406Z,16.40
2022-10-11T19:30:21.724Z,16.60
2022-10-11T19:32:49.429Z,16.68
2022-10-11T19:35:19.907Z,16.59
2022-10-11T19:37:47.907Z,16.65
2022-10-11T19:40:15.632Z,16.54
2022-10-11T19:42:43.307Z,16.07
2022-10-11T19:45:11.355Z,15.60
2022-10-11T19:47:40.415Z,15.95
2022-10-11T19:50:11.128Z,15.44
2022-10-11T19:52:44.088Z,15.95
2022-10-11T19:55:12.562Z,16.07
2022-10-11T19:57:40.256Z,16.04
2022-10-11T20:00:09.500Z,16.33
2022-10-11T20:02:37.266Z,16.25
2022-10-11T20:05:07.241Z,16.22
2022-10-11T20:07:36.712Z,16.25
2022-10-11T20:10:05.251Z,16.45
2022-10-11T20:12:34.247Z,16.20
2022-10-11T20:15:02.282Z,16.36
2022-10-11T20:17:43.976Z,16.61
2022-10-11T20:20:13.189Z,16.61
2022-10-11T20:22:40.892Z,16.64
2022-10-11T20:25:09.515Z,16.68
2022-10-11T20:27:37.211Z,16.41
2022-10-11T20:30:05.906Z,16.31
2022-10-11T20:32:34.209Z,16.39
2022-10-11T20:35:02.234Z,16.15
2022-10-11T20:37:31.591Z,16.34
2022-10-11T20:39:59.469Z,16.39
2022-10-11T20:42:29.742Z,16.49
2022-10-11T20:44:58.995Z,16.56
2022-10-11T20:47:26.778Z,16.02
2022-10-11T20:49:54.467Z,16.43
2022-10-11T20:52:22.188Z,16.38
2022-10-11T20:54:51.227Z,16.20
2022-10-11T20:57:18.969Z,15.62
2022-10-11T20:59:46.646Z,15.54
2022-10-11T21:02:18.699Z,15.42
2022-10-11T21:04:46.812Z,15.89
2022-10-11T21:07:14.505Z,16.20
2022-10-11T21:09:42.220Z,16.39
2022-10-11T21:12:11.258Z,16.54
2022-10-11T21:14:38.933Z,16.58
2022-10-11T21:17:06.669Z,16.57
2022-10-11T21:19:34.390Z,16.36
2022-10-11T21:22:02.070Z,16.15
2022-10-11T21:24:29.780Z,16.24
2022-10-11T21:27:00.611Z,16.20
2022-10-11T21:29:30.571Z,16.32
2022-10-11T21:31:58.278Z,16.50
2022-10-11T21:34:25.965Z,16.54
2022-10-11T21:36:53.614Z,16.67
2022-10-11T21:39:21.568Z,16.56
2022-10-11T21:41:49.225Z,16.27
2022-10-11T21:44:17.120Z,16.27
2022-10-11T21:49:33.915Z,16.24
2022-10-11T21:52:01.778Z,15.88
2022-10-11T21:54:29.487Z,15.83
2022-10-11T21:56:57.169Z,16.02
2022-10-11T21:59:24.926Z,16.09
2022-10-11T22:01:58.088Z,16.13
2022-10-11T22:04:28.539Z,15.78
2022-10-11T22:06:56.409Z,15.91
2022-10-11T22:09:24.242Z,15.62
2022-10-11T22:11:51.942Z,15.54
2022-10-11T22:14:19.674Z,15.45
2022-10-11T22:16:47.337Z,15.59
2022-10-11T22:19:16.396Z,15.41
2022-10-11T22:21:45.192Z,15.18
2022-10-11T22:24:13.737Z,15.26
2022-10-11T22:26:41.560Z,15.49
2022-10-11T22:29:09.538Z,15.20
2022-10-11T22:31:37.257Z,15.17
2022-10-11T22:34:04.950Z,15.16
2022-10-11T22:36:34.561Z,15.15
2022-10-11T22:39:07.487Z,15.24
2022-10-11T22:41:35.894Z,15.40
2022-10-11T22:44:04.174Z,15.54
2022-10-11T22:46:32.829Z,15.24
2022-10-11T22:49:00.484Z,15.74
2022-10-11T22:51:28.200Z,15.80
2022-10-11T22:53:57.228Z,15.59
2022-10-11T22:56:24.966Z,15.09
2022-10-11T22:58:52.626Z,15.28
2022-10-11T23:01:20.338Z,15.57
2022-10-11T23:03:49.998Z,15.85
2022-10-11T23:06:18.388Z,15.92
2022-10-11T23:08:46.020Z,15.95
2022-10-11T23:11:15.042Z,16.01
2022-10-11T23:13:42.721Z,15.94
2022-10-11T23:16:14.735Z,16.09
2022-10-11T23:18:42.630Z,16.09
2022-10-11T23:21:10.443Z,16.03
2022-10-11T23:23:39.608Z,16.03
2022-10-11T23:26:09.539Z,16.05
2022-10-11T23:28:39.067Z,16.00
2022-10-11T23:31:08.421Z,15.95
2022-10-11T23:33:36.394Z,15.88
2022-10-11T23:36:04.779Z,15.87
2022-10-11T23:38:32.676Z,15.93
2022-10-11T23:41:00.466Z,16.00
2022-10-11T23:43:28.577Z,15.88
2022-10-11T23:45:57.602Z,15.48
2022-10-11T23:48:25.294Z,15.23
2022-10-11T23:50:53.036Z,15.71
2022-10-11T23:53:20.850Z,15.62
2022-10-11T23:55:48.541Z,15.74
2022-10-11T23:58:16.229Z,15.70
